Time;durP1;ratioP1;P1;durP2;ratioP2;P2;SDS_P1;SDS_P2;PMS_P1;PMS_P2;Temp;Humidity;BMP_temperature;BMP_pressure;BME280_temperature;BME280_humidity;BME280_pressure;Samples;Min_cycle;Max_cycle;Signal;HPM_P1;HPM_P2
2022/06/04 00:01:26;;;;;;;31.08;19.17;;;21.20;99.90;;;;;;5022268;28;20037;-73
2022/06/04 00:03:52;;;;;;;38.53;22.00;;;21.20;99.90;;;;;;5026017;28;20038;-72
2022/06/04 00:06:18;;;;;;;35.90;21.35;;;21.20;99.90;;;;;;5037455;28;20046;-75
2022/06/04 00:08:44;;;;;;;38.22;22.25;;;21.10;99.90;;;;;;5026291;28;20034;-73
2022/06/04 00:16:40;;;;;;;39.75;22.83;;;21.00;99.90;;;;;;5022959;28;20048;-72
2022/06/04 00:19:06;;;;;;;39.47;21.13;;;21.00;99.90;;;;;;5033190;28;20052;-73
2022/06/04 00:21:32;;;;;;;34.58;19.20;;;21.00;99.90;;;;;;5037830;28;20196;-72
2022/06/04 00:23:58;;;;;;;32.03;17.48;;;21.00;99.90;;;;;;5028649;28;20570;-72
2022/06/04 00:26:23;;;;;;;36.38;17.20;;;21.10;99.90;;;;;;5033604;28;20040;-72
2022/06/04 00:28:50;;;;;;;33.90;16.52;;;21.10;99.90;;;;;;5024270;28;20037;-73
2022/06/04 00:31:17;;;;;;;29.42;15.05;;;21.10;99.90;;;;;;5019835;28;20037;-72
2022/06/04 00:33:44;;;;;;;26.60;13.63;;;21.20;99.90;;;;;;5036582;28;20029;-72
2022/06/04 00:36:10;;;;;;;24.63;12.77;;;21.20;99.90;;;;;;5033028;28;20041;-72
2022/06/04 00:38:37;;;;;;;28.65;12.88;;;21.30;99.90;;;;;;5034598;28;20069;-73
2022/06/04 00:41:29;;;;;;;32.83;12.80;;;21.30;99.90;;;;;;5016585;28;20092;-73
2022/06/04 00:44:03;;;;;;;28.30;12.77;;;21.40;99.90;;;;;;5050266;28;20123;-73
2022/06/04 00:46:42;;;;;;;26.48;12.40;;;21.50;99.90;;;;;;5020963;28;20029;-72
2022/06/04 00:49:08;;;;;;;27.05;13.05;;;21.50;99.90;;;;;;5020623;28;20053;-72
2022/06/04 00:51:37;;;;;;;27.95;14.43;;;21.30;99.90;;;;;;5018919;28;20045;-72
2022/06/04 00:54:03;;;;;;;27.48;15.13;;;21.20;99.90;;;;;;5017187;28;20049;-72
2022/06/04 00:56:32;;;;;;;24.05;14.52;;;21.10;99.90;;;;;;5018826;28;20033;-72
2022/06/04 00:59:17;;;;;;;33.65;17.70;;;21.10;99.90;;;;;;5020301;28;20042;-72
2022/06/04 01:01:58;;;;;;;31.40;18.77;;;21.00;99.90;;;;;;5019250;28;20041;-73
2022/06/04 01:04:49;;;;;;;31.98;17.58;;;20.90;99.90;;;;;;5032864;28;20072;-73
2022/06/04 01:07:42;;;;;;;30.55;18.10;;;20.90;99.90;;;;;;5016584;28;20120;-72
2022/06/04 01:10:27;;;;;;;31.90;17.63;;;20.90;99.90;;;;;;5034172;28;20043;-72
2022/06/04 01:13:30;;;;;;;34.78;16.17;;;21.00;99.90;;;;;;5019291;28;20049;-73
2022/06/04 01:16:11;;;;;;;27.70;17.63;;;20.90;99.90;;;;;;5002627;28;20119;-72
2022/06/04 01:18:41;;;;;;;34.08;17.92;;;20.90;99.90;;;;;;5033751;28;20465;-72
2022/06/04 01:21:13;;;;;;;31.50;17.88;;;21.00;99.90;;;;;;5021870;28;20037;-73
2022/06/04 01:24:24;;;;;;;27.35;16.85;;;21.00;99.90;;;;;;5018636;28;20533;-73
2022/06/04 01:26:56;;;;;;;32.97;18.05;;;21.00;99.90;;;;;;4968573;28;20113;-73
2022/06/04 01:29:36;;;;;;;28.92;16.88;;;21.00;99.90;;;;;;5048431;28;20046;-72
2022/06/04 01:32:16;;;;;;;37.10;18.13;;;21.10;99.90;;;;;;5021454;28;20115;-71
2022/06/04 01:35:00;;;;;;;30.60;17.67;;;21.20;99.90;;;;;;5030050;28;20061;-73
2022/06/04 01:37:44;;;;;;;33.63;18.23;;;21.10;99.90;;;;;;5020313;28;20041;-72
2022/06/04 01:43:01;;;;;;;31.17;16.75;;;20.90;99.90;;;;;;5013878;28;20416;-75
2022/06/04 01:45:28;;;;;;;29.70;15.90;;;20.90;99.90;;;;;;5020310;28;20031;-73
2022/06/04 01:47:57;;;;;;;32.78;15.52;;;20.90;99.90;;;;;;5043194;28;20040;-73
2022/06/04 01:50:32;;;;;;;23.13;14.35;;;20.90;99.90;;;;;;5019253;28;20038;-73
2022/06/04 01:53:02;;;;;;;24.50;14.93;;;20.80;99.90;;;;;;5021407;28;20388;-72
2022/06/04 01:55:41;;;;;;;26.30;16.27;;;20.80;99.90;;;;;;5019905;28;20120;-73
2022/06/04 01:58:16;;;;;;;28.05;16.67;;;20.80;99.90;;;;;;5019799;28;20102;-73
2022/06/04 02:00:47;;;;;;;35.60;17.42;;;20.80;99.90;;;;;;5019319;28;20034;-72
2022/06/04 02:03:20;;;;;;;35.78;19.17;;;20.80;99.90;;;;;;5021388;28;20036;-72
2022/06/04 02:05:49;;;;;;;34.00;20.80;;;20.80;99.90;;;;;;5036686;28;20050;-73
2022/06/04 02:08:23;;;;;;;35.30;22.90;;;20.80;99.90;;;;;;5021992;28;20037;-72
2022/06/04 02:11:05;;;;;;;37.67;19.48;;;20.70;99.90;;;;;;5055320;28;20129;-72
2022/06/04 02:13:33;;;;;;;35.97;19.35;;;20.70;99.90;;;;;;5013597;28;20084;-71
2022/06/04 02:16:31;;;;;;;32.28;19.60;;;20.60;99.90;;;;;;5026173;28;20104;-72
2022/06/04 02:18:58;;;;;;;36.78;19.60;;;20.60;99.90;;;;;;5016367;28;20653;-72
2022/06/04 02:21:27;;;;;;;34.22;19.95;;;20.50;99.90;;;;;;5017760;28;20038;-72
2022/06/04 02:23:54;;;;;;;32.28;18.17;;;20.50;99.90;;;;;;5018837;28;20457;-72
2022/06/04 02:26:21;;;;;;;29.23;18.48;;;20.50;99.90;;;;;;5018772;28;20042;-72
2022/06/04 02:28:47;;;;;;;31.67;17.77;;;20.50;99.90;;;;;;5016868;28;20453;-73
2022/06/04 02:31:35;;;;;;;36.05;18.40;;;20.50;99.90;;;;;;5022861;28;20284;-72
2022/06/04 02:34:22;;;;;;;34.10;20.25;;;20.40;99.90;;;;;;5037558;28;20061;-72
2022/06/04 02:37:45;;;;;;;33.58;20.67;;;20.40;99.90;;;;;;5021597;28;20037;-73
2022/06/04 02:40:22;;;;;;;32.60;18.80;;;20.40;99.90;;;;;;4946468;28;20047;-72
2022/06/04 02:43:04;;;;;;;33.00;20.27;;;20.50;99.90;;;;;;4949003;28;20088;-72
2022/06/04 02:45:44;;;;;;;36.22;20.80;;;20.50;99.90;;;;;;4976344;28;20377;-73
2022/06/04 02:48:25;;;;;;;34.28;20.63;;;20.50;99.90;;;;;;5002470;28;20026;-72
2022/06/04 02:50:57;;;;;;;28.30;17.33;;;20.60;99.90;;;;;;5004128;28;20034;-72
2022/06/04 02:53:26;;;;;;;30.02;18.38;;;20.60;99.90;;;;;;4999196;28;20097;-72
2022/06/04 02:55:57;;;;;;;29.98;18.08;;;20.60;99.90;;;;;;5000402;28;20034;-71
2022/06/04 02:58:24;;;;;;;29.30;17.88;;;20.60;99.90;;;;;;5004413;28;20050;-72
2022/06/04 03:00:54;;;;;;;31.80;19.98;;;20.60;99.90;;;;;;5018738;28;20076;-71
2022/06/04 03:03:21;;;;;;;32.60;19.45;;;20.60;99.90;;;;;;5002023;28;20038;-72
2022/06/04 03:05:54;;;;;;;28.63;17.98;;;20.60;99.90;;;;;;5049443;28;20073;-72
2022/06/04 03:08:21;;;;;;;35.10;18.33;;;20.70;99.90;;;;;;5021443;28;20083;-72
2022/06/04 03:10:49;;;;;;;29.50;17.05;;;20.70;99.90;;;;;;5027404;28;20030;-72
2022/06/04 03:13:14;;;;;;;30.50;17.00;;;20.70;99.90;;;;;;5024823;28;20559;-72
2022/06/04 03:15:41;;;;;;;36.95;17.30;;;20.60;99.90;;;;;;5023044;28;20025;-73
2022/06/04 03:18:07;;;;;;;30.42;17.63;;;20.60;99.90;;;;;;5039926;28;20053;-71
2022/06/04 03:20:33;;;;;;;37.13;18.40;;;20.60;99.90;;;;;;5024630;28;20450;-72
2022/06/04 03:22:59;;;;;;;35.95;21.55;;;20.60;99.90;;;;;;5022988;28;20404;-72
2022/06/04 03:25:25;;;;;;;40.95;22.33;;;20.60;99.90;;;;;;5025381;28;20033;-73
2022/06/04 03:27:51;;;;;;;43.58;21.63;;;20.50;99.90;;;;;;5023888;28;20046;-72
2022/06/04 03:30:18;;;;;;;40.10;22.88;;;20.40;99.90;;;;;;5038317;28;20049;-72
2022/06/04 03:32:51;;;;;;;41.10;23.70;;;20.40;99.90;;;;;;5056137;28;20360;-73
2022/06/04 03:35:19;;;;;;;43.75;24.67;;;20.30;99.90;;;;;;5039236;28;20048;-72
2022/06/04 03:37:46;;;;;;;45.38;24.08;;;20.30;99.90;;;;;;5035059;28;20052;-73
2022/06/04 03:40:13;;;;;;;44.92;25.25;;;20.30;99.90;;;;;;5023320;28;20689;-73
2022/06/04 03:42:39;;;;;;;45.00;24.60;;;20.30;99.90;;;;;;5022748;28;20714;-73
2022/06/04 03:45:07;;;;;;;45.63;25.38;;;20.30;99.90;;;;;;5026098;28;20045;-72
2022/06/04 03:47:36;;;;;;;44.50;25.52;;;20.30;99.90;;;;;;5020246;28;20124;-72
2022/06/04 03:50:15;;;;;;;47.42;25.55;;;20.20;99.90;;;;;;5036051;28;20434;-72
2022/06/04 03:52:43;;;;;;;49.75;29.35;;;20.20;99.90;;;;;;5019841;28;20040;-72
2022/06/04 03:55:10;;;;;;;44.97;26.10;;;20.20;99.90;;;;;;5021962;28;20109;-72
2022/06/04 03:57:38;;;;;;;43.53;26.48;;;20.20;99.90;;;;;;5018676;28;20065;-72
2022/06/04 04:00:35;;;;;;;47.38;27.20;;;20.10;99.90;;;;;;5020555;28;20033;-72
2022/06/04 04:03:06;;;;;;;49.55;29.02;;;20.10;99.90;;;;;;5018713;28;20127;-72
2022/06/04 04:05:44;;;;;;;41.47;26.30;;;20.10;99.90;;;;;;5019499;28;20049;-73
2022/06/04 04:08:11;;;;;;;48.65;26.83;;;20.10;99.90;;;;;;5018337;28;20042;-73
2022/06/04 04:10:40;;;;;;;41.80;25.67;;;20.10;99.90;;;;;;5020680;28;20045;-73
2022/06/04 04:13:06;;;;;;;41.85;22.65;;;20.10;99.90;;;;;;5022780;28;20057;-73
2022/06/04 04:15:32;;;;;;;40.00;22.30;;;20.10;99.90;;;;;;5054429;28;20030;-72
2022/06/04 04:17:58;;;;;;;40.65;23.13;;;20.10;99.90;;;;;;5039185;28;20047;-73
2022/06/04 04:20:28;;;;;;;39.60;23.00;;;20.10;99.90;;;;;;5018070;28;20038;-73
2022/06/04 04:22:55;;;;;;;48.03;23.65;;;20.10;99.90;;;;;;5014646;28;20049;-71
2022/06/04 04:25:23;;;;;;;38.30;22.35;;;20.00;99.90;;;;;;5031310;28;20034;-72
2022/06/04 04:27:49;;;;;;;45.75;25.27;;;20.00;99.90;;;;;;5026486;28;20038;-71
2022/06/04 04:30:19;;;;;;;41.67;24.67;;;20.10;99.90;;;;;;5032701;28;20076;-73
2022/06/04 04:32:45;;;;;;;41.08;23.52;;;20.00;99.90;;;;;;5019743;28;20496;-73
2022/06/04 04:35:18;;;;;;;39.92;23.55;;;20.10;99.90;;;;;;5019867;28;20069;-73
2022/06/04 04:37:45;;;;;;;48.88;26.45;;;20.10;99.90;;;;;;5054181;28;20050;-72
2022/06/04 04:40:14;;;;;;;41.40;23.92;;;20.10;99.90;;;;;;5036219;28;20034;-72
2022/06/04 04:42:41;;;;;;;42.33;24.63;;;20.20;99.90;;;;;;5021316;28;20592;-73
2022/06/04 04:45:08;;;;;;;44.05;24.38;;;20.20;99.90;;;;;;5021611;28;20100;-72
2022/06/04 04:47:36;;;;;;;42.80;25.35;;;20.30;99.90;;;;;;5020156;28;20398;-72
2022/06/04 04:50:05;;;;;;;46.70;29.60;;;20.40;99.90;;;;;;5021307;28;20047;-72
2022/06/04 04:52:31;;;;;;;39.58;25.65;;;20.40;99.90;;;;;;5019461;28;20084;-73
2022/06/04 04:54:57;;;;;;;37.90;25.55;;;20.50;99.90;;;;;;5017865;28;20077;-73
2022/06/04 04:57:22;;;;;;;43.13;26.23;;;20.50;99.90;;;;;;5022894;28;20045;-72
2022/06/04 04:59:48;;;;;;;44.58;25.98;;;20.60;99.90;;;;;;5026319;28;20049;-72
2022/06/04 05:02:14;;;;;;;46.70;27.20;;;20.70;99.90;;;;;;5027887;28;20047;-73
2022/06/04 05:04:41;;;;;;;41.60;26.33;;;20.80;99.90;;;;;;5033219;28;20038;-74
2022/06/04 05:07:09;;;;;;;47.03;27.60;;;20.90;99.90;;;;;;5016660;28;20038;-73
2022/06/04 05:09:37;;;;;;;36.03;25.75;;;20.90;99.90;;;;;;5052863;28;20034;-74
2022/06/04 05:12:03;;;;;;;46.38;26.75;;;20.90;99.90;;;;;;5035425;28;20030;-72
2022/06/04 05:14:30;;;;;;;45.40;25.85;;;20.80;99.90;;;;;;5018520;28;20034;-73
2022/06/04 05:16:55;;;;;;;35.78;23.33;;;20.80;99.90;;;;;;5021896;28;20025;-72
2022/06/04 05:19:23;;;;;;;36.50;23.02;;;20.90;99.90;;;;;;5015459;28;20041;-73
2022/06/04 05:21:53;;;;;;;34.90;22.98;;;20.90;99.90;;;;;;5023459;28;20645;-72
2022/06/04 05:24:27;;;;;;;38.60;24.45;;;21.00;99.90;;;;;;5019290;28;20050;-72
2022/06/04 05:26:54;;;;;;;34.90;21.98;;;21.00;99.90;;;;;;5022660;28;20030;-73
2022/06/04 05:29:21;;;;;;;33.45;22.25;;;21.10;99.90;;;;;;5033296;28;20715;-73
2022/06/04 05:31:47;;;;;;;37.72;22.70;;;21.20;99.90;;;;;;5039138;28;20125;-73
2022/06/04 05:34:17;;;;;;;32.47;23.65;;;21.20;99.90;;;;;;5020715;28;20041;-72
2022/06/04 05:36:45;;;;;;;35.47;23.38;;;21.20;99.90;;;;;;5033640;28;20057;-73
2022/06/04 05:39:12;;;;;;;30.33;21.65;;;21.10;99.90;;;;;;5020715;28;20132;-73
2022/06/04 05:41:38;;;;;;;34.70;21.65;;;21.10;99.90;;;;;;5030634;28;20091;-73
2022/06/04 05:44:05;;;;;;;34.08;22.23;;;21.10;99.90;;;;;;5020244;28;20034;-72
2022/06/04 05:46:32;;;;;;;33.90;20.38;;;21.10;99.90;;;;;;5033846;28;20041;-71
2022/06/04 05:48:59;;;;;;;30.55;19.90;;;21.10;99.90;;;;;;5026111;28;20057;-73
2022/06/04 05:51:28;;;;;;;36.03;21.85;;;21.20;99.90;;;;;;5023524;28;20040;-74
2022/06/04 05:53:54;;;;;;;33.58;21.65;;;21.20;99.90;;;;;;5020791;28;20565;-73
2022/06/04 05:56:26;;;;;;;35.03;21.10;;;21.20;99.90;;;;;;5020809;28;20102;-72
2022/06/04 05:58:55;;;;;;;35.75;21.45;;;21.20;99.90;;;;;;5024561;28;20045;-73
2022/06/04 06:01:22;;;;;;;31.42;20.98;;;21.00;99.90;;;;;;5021267;28;20050;-72
2022/06/04 06:03:48;;;;;;;32.28;20.23;;;21.10;99.90;;;;;;5020511;28;20115;-71
2022/06/04 06:06:18;;;;;;;32.45;18.77;;;21.20;99.90;;;;;;5022984;28;20061;-72
2022/06/04 06:08:43;;;;;;;28.95;19.38;;;21.30;99.90;;;;;;5025569;28;20117;-73
2022/06/04 06:11:12;;;;;;;32.45;20.42;;;21.40;99.90;;;;;;5022262;28;20552;-74
2022/06/04 06:13:40;;;;;;;31.25;20.27;;;21.50;99.90;;;;;;5023181;28;20045;-73
2022/06/04 06:16:08;;;;;;;33.38;20.38;;;21.50;99.90;;;;;;5035801;28;20053;-73
2022/06/04 06:18:36;;;;;;;32.28;19.70;;;21.60;99.90;;;;;;5021665;28;20037;-72
2022/06/04 06:21:25;;;;;;;34.25;19.05;;;21.70;99.90;;;;;;5020850;28;20180;-71
2022/06/04 06:23:51;;;;;;;30.00;17.70;;;21.70;99.90;;;;;;5058636;28;20046;-72
2022/06/04 06:26:23;;;;;;;30.75;16.98;;;21.70;99.90;;;;;;5012670;28;20042;-72
2022/06/04 06:28:50;;;;;;;30.60;17.98;;;21.70;99.90;;;;;;5021772;28;20096;-72
2022/06/04 06:31:20;;;;;;;28.77;18.85;;;21.80;99.90;;;;;;5039910;28;20069;-72
2022/06/04 06:33:47;;;;;;;29.67;17.88;;;21.90;99.90;;;;;;5023825;28;20038;-73
2022/06/04 06:36:17;;;;;;;31.45;17.70;;;22.00;99.90;;;;;;5023692;28;20041;-73
2022/06/04 06:38:45;;;;;;;27.98;16.83;;;22.10;99.90;;;;;;5057057;28;20543;-72
2022/06/04 06:41:13;;;;;;;28.05;15.77;;;22.10;99.90;;;;;;5022036;28;20042;-72
2022/06/04 06:43:46;;;;;;;31.80;15.60;;;22.20;99.90;;;;;;5028295;28;20037;-72
2022/06/04 06:46:16;;;;;;;30.17;15.43;;;22.30;99.90;;;;;;5026009;28;20060;-73
2022/06/04 06:48:43;;;;;;;29.60;15.98;;;22.40;99.90;;;;;;5019862;28;20477;-73
2022/06/04 06:51:12;;;;;;;25.98;15.98;;;22.60;99.90;;;;;;5021891;28;20116;-73
2022/06/04 06:53:40;;;;;;;27.77;15.82;;;22.60;99.90;;;;;;5023130;28;20091;-74
2022/06/04 06:56:18;;;;;;;26.10;14.35;;;22.70;99.90;;;;;;5021302;28;20076;-73
2022/06/04 06:58:46;;;;;;;22.60;13.60;;;22.80;99.90;;;;;;5012422;28;20049;-74
2022/06/04 07:01:13;;;;;;;26.45;14.50;;;22.90;99.90;;;;;;5020706;28;20042;-72
2022/06/04 07:03:41;;;;;;;25.25;14.23;;;23.00;99.90;;;;;;5023717;28;20038;-72
2022/06/04 07:06:10;;;;;;;24.50;13.50;;;23.00;99.90;;;;;;5020097;28;20052;-73
2022/06/04 07:08:38;;;;;;;25.40;13.15;;;23.00;99.90;;;;;;5024216;28;20048;-74
2022/06/04 07:11:04;;;;;;;19.73;12.95;;;23.10;99.90;;;;;;5022978;28;20155;-75
2022/06/04 07:13:30;;;;;;;27.75;11.85;;;23.20;99.90;;;;;;5035863;28;20033;-73
2022/06/04 07:15:56;;;;;;;18.73;11.18;;;23.20;99.90;;;;;;5019869;28;20049;-72
2022/06/04 07:18:23;;;;;;;19.70;11.55;;;23.20;99.90;;;;;;5022867;28;20040;-72
2022/06/04 07:20:49;;;;;;;18.30;10.80;;;23.30;99.90;;;;;;5021321;28;20051;-73
2022/06/04 07:23:18;;;;;;;21.55;11.07;;;23.40;99.90;;;;;;5037734;28;20037;-75
2022/06/04 07:25:46;;;;;;;22.60;11.35;;;23.50;99.90;;;;;;5030848;28;20099;-73
2022/06/04 07:28:14;;;;;;;21.08;10.82;;;23.50;99.90;;;;;;5023707;28;20056;-73
2022/06/04 07:30:40;;;;;;;19.65;10.55;;;23.60;99.90;;;;;;5022062;28;20034;-74
2022/06/04 07:33:07;;;;;;;20.33;10.88;;;23.70;99.90;;;;;;5024549;28;20041;-73
2022/06/04 07:35:33;;;;;;;20.92;11.10;;;23.80;99.90;;;;;;5026641;28;20026;-72
2022/06/04 07:37:59;;;;;;;23.05;10.80;;;23.90;99.90;;;;;;5037045;28;20243;-72
2022/06/04 07:40:25;;;;;;;23.98;10.85;;;24.00;99.90;;;;;;5023078;28;20131;-73
2022/06/04 07:42:51;;;;;;;22.75;10.20;;;24.20;99.90;;;;;;5037734;28;20043;-74
2022/06/04 07:45:17;;;;;;;25.83;10.23;;;24.30;99.90;;;;;;5023348;28;20053;-74
2022/06/04 07:47:44;;;;;;;26.55;9.90;;;24.30;99.90;;;;;;5022620;28;20484;-72
2022/06/04 07:50:13;;;;;;;23.25;10.27;;;24.30;99.90;;;;;;5025969;28;20090;-74
2022/06/04 07:52:39;;;;;;;24.67;9.90;;;24.20;99.90;;;;;;5023564;28;20967;-73
2022/06/04 07:55:07;;;;;;;21.13;9.02;;;24.30;99.90;;;;;;5029286;28;20096;-74
2022/06/04 07:57:37;;;;;;;17.38;9.45;;;24.50;99.90;;;;;;5035569;28;20026;-73
2022/06/04 08:00:07;;;;;;;17.05;9.00;;;24.60;99.90;;;;;;5022171;28;20580;-72
2022/06/04 08:02:33;;;;;;;22.60;11.98;;;24.70;99.90;;;;;;5024222;28;20129;-72
2022/06/04 08:04:59;;;;;;;24.20;11.02;;;24.60;99.90;;;;;;5020183;28;20736;-71
2022/06/04 08:07:25;;;;;;;20.35;10.60;;;24.70;99.90;;;;;;5021984;28;20783;-72
2022/06/04 08:09:52;;;;;;;23.75;9.77;;;24.90;99.90;;;;;;5019527;28;20038;-73
2022/06/04 08:12:19;;;;;;;17.70;9.02;;;25.00;99.90;;;;;;5037186;28;20034;-72
2022/06/04 08:14:48;;;;;;;19.75;8.73;;;25.10;99.90;;;;;;5024838;28;20041;-73
2022/06/04 08:17:14;;;;;;;19.30;9.00;;;25.10;99.90;;;;;;5036647;28;20057;-72
2022/06/04 08:19:42;;;;;;;20.45;7.95;;;25.20;99.90;;;;;;5038737;28;20715;-72
2022/06/04 08:22:09;;;;;;;18.75;7.65;;;25.30;99.90;;;;;;5025483;28;20037;-74
2022/06/04 08:24:35;;;;;;;20.35;7.32;;;25.30;99.90;;;;;;5023085;28;20470;-72
2022/06/04 08:27:02;;;;;;;25.25;7.82;;;25.60;99.90;;;;;;5006611;28;20049;-73
2022/06/04 08:29:34;;;;;;;17.92;8.05;;;25.80;99.90;;;;;;5021069;28;20036;-72
2022/06/04 08:32:03;;;;;;;25.25;10.43;;;25.90;99.90;;;;;;5031574;28;20038;-73
2022/06/04 08:34:30;;;;;;;23.40;9.48;;;26.10;99.90;;;;;;5021231;28;20096;-73
2022/06/04 08:36:56;;;;;;;18.42;9.88;;;25.90;99.90;;;;;;5019546;28;20038;-73
2022/06/04 08:39:22;;;;;;;22.73;11.00;;;25.80;99.90;;;;;;5019055;28;20046;-74
2022/06/04 08:42:05;;;;;;;19.95;10.27;;;25.90;99.90;;;;;;5008735;28;20037;-73
2022/06/04 08:44:39;;;;;;;19.50;10.82;;;26.10;99.90;;;;;;5010541;28;20056;-73
2022/06/04 08:47:14;;;;;;;20.85;11.00;;;26.10;99.90;;;;;;5009343;28;20414;-72
2022/06/04 08:49:42;;;;;;;23.70;10.43;;;26.30;99.90;;;;;;5026521;28;20053;-72
2022/06/04 08:52:22;;;;;;;18.80;9.98;;;26.30;99.90;;;;;;5023267;28;20451;-73
2022/06/04 08:58:13;;;;;;;16.58;9.10;;;26.00;99.90;;;;;;5019190;28;20056;-73
2022/06/04 09:00:52;;;;;;;20.90;9.40;;;25.80;99.90;;;;;;5019120;28;20022;-73
2022/06/04 09:03:28;;;;;;;19.33;9.20;;;25.70;99.90;;;;;;5021444;28;20692;-73
2022/06/04 09:06:15;;;;;;;19.70;8.60;;;25.90;99.90;;;;;;5018049;28;20033;-72
2022/06/04 09:09:08;;;;;;;27.70;9.60;;;25.90;99.90;;;;;;5017593;28;20033;-73
2022/06/04 09:11:50;;;;;;;16.73;8.70;;;26.00;99.90;;;;;;5010022;28;20037;-73
2022/06/04 09:14:31;;;;;;;21.10;8.57;;;26.10;99.90;;;;;;5008529;28;20037;-73
2022/06/04 09:17:10;;;;;;;18.75;9.00;;;26.30;99.90;;;;;;5023600;28;20050;-73
2022/06/04 09:19:38;;;;;;;18.42;8.65;;;26.40;99.90;;;;;;5007907;28;20056;-72
2022/06/04 09:22:22;;;;;;;16.80;8.15;;;26.40;99.90;;;;;;5023946;28;20033;-73
2022/06/04 09:24:48;;;;;;;17.77;8.27;;;26.10;99.90;;;;;;5010243;28;20095;-73
2022/06/04 09:27:45;;;;;;;19.48;8.98;;;26.20;99.90;;;;;;5010745;28;20995;-75
2022/06/04 09:30:14;;;;;;;22.98;9.15;;;26.30;99.90;;;;;;5008655;28;20050;-75
2022/06/04 09:33:02;;;;;;;19.83;9.48;;;26.30;99.90;;;;;;5007136;28;20056;-74
2022/06/04 09:35:32;;;;;;;22.45;9.18;;;26.60;99.90;;;;;;5014827;28;20034;-73
2022/06/04 09:37:59;;;;;;;23.83;9.13;;;26.80;99.90;;;;;;5033467;28;20092;-74
2022/06/04 09:40:32;;;;;;;25.90;10.35;;;26.90;99.90;;;;;;5020718;28;20037;-74
2022/06/04 09:43:15;;;;;;;21.58;8.65;;;26.90;99.90;;;;;;5005361;28;20052;-73
2022/06/04 09:45:50;;;;;;;18.38;8.48;;;26.90;99.90;;;;;;5041293;28;20478;-73
2022/06/04 09:48:23;;;;;;;24.45;8.05;;;27.10;99.90;;;;;;5024487;28;20128;-73
2022/06/04 09:51:04;;;;;;;19.45;7.47;;;27.30;99.90;;;;;;5041655;28;20034;-76
2022/06/04 09:53:41;;;;;;;18.95;7.85;;;27.40;99.90;;;;;;5039390;28;20072;-73
2022/06/04 09:56:25;;;;;;;18.02;7.50;;;27.50;99.90;;;;;;5017977;28;20068;-73
2022/06/04 09:58:52;;;;;;;17.65;6.78;;;27.60;99.90;;;;;;5039156;28;20501;-73
2022/06/04 10:01:18;;;;;;;18.80;6.60;;;27.90;99.90;;;;;;5038516;28;20067;-72
2022/06/04 10:03:57;;;;;;;20.48;6.50;;;27.80;99.90;;;;;;5036968;28;20056;-73
2022/06/04 10:06:26;;;;;;;20.00;7.18;;;27.60;99.90;;;;;;5017572;28;20190;-74
2022/06/04 10:11:56;;;;;;;14.32;5.85;;;27.50;99.90;;;;;;5025172;28;20060;-72
2022/06/04 10:14:40;;;;;;;18.35;6.70;;;27.70;99.90;;;;;;5037181;28;20048;-73
2022/06/04 10:17:17;;;;;;;14.15;6.00;;;27.60;99.90;;;;;;5036613;28;20133;-73
2022/06/04 10:19:53;;;;;;;16.75;6.47;;;27.60;99.90;;;;;;5020582;28;20152;-72
2022/06/04 10:22:19;;;;;;;15.40;6.45;;;27.60;99.90;;;;;;5036230;28;20048;-71
2022/06/04 10:24:55;;;;;;;17.30;7.45;;;27.90;99.90;;;;;;5044329;28;20030;-74
2022/06/04 10:27:43;;;;;;;14.48;7.47;;;27.70;99.90;;;;;;5037166;28;20038;-73
2022/06/04 10:30:18;;;;;;;14.05;6.85;;;27.50;99.90;;;;;;5038134;28;20046;-73
2022/06/04 10:32:59;;;;;;;14.68;7.55;;;27.70;99.90;;;;;;5022354;28;20807;-73
2022/06/04 10:35:50;;;;;;;15.77;6.53;;;28.20;99.90;;;;;;5036233;28;20559;-73
2022/06/04 10:38:48;;;;;;;11.98;6.82;;;28.00;99.90;;;;;;5032764;28;20040;-72
2022/06/04 10:41:51;;;;;;;19.38;5.40;;;28.30;99.90;;;;;;5035982;28;20116;-75
2022/06/04 10:45:14;;;;;;;12.20;5.32;;;28.50;99.90;;;;;;5035542;28;20595;-73
2022/06/04 10:47:51;;;;;;;10.38;5.80;;;28.60;99.90;;;;;;5022153;28;20033;-74
2022/06/04 10:50:22;;;;;;;15.18;6.78;;;28.60;99.90;;;;;;5019988;28;20037;-72
2022/06/04 10:52:55;;;;;;;11.73;5.17;;;28.80;99.90;;;;;;5026981;28;20045;-72
2022/06/04 10:55:27;;;;;;;11.38;3.80;;;28.90;99.90;;;;;;5023372;28;20087;-73
2022/06/04 10:58:28;;;;;;;8.73;5.35;;;29.00;99.90;;;;;;5020285;28;20049;-73
2022/06/04 11:01:18;;;;;;;14.98;6.28;;;29.30;99.90;;;;;;5021759;28;20054;-72
2022/06/04 11:04:07;;;;;;;10.38;5.70;;;28.90;99.90;;;;;;5038655;28;20029;-72
2022/06/04 11:06:42;;;;;;;11.85;4.50;;;29.30;99.90;;;;;;5022758;28;20121;-72
2022/06/04 11:09:17;;;;;;;8.00;3.88;;;29.30;99.90;;;;;;5020799;28;20099;-73
2022/06/04 11:11:51;;;;;;;9.00;4.00;;;29.90;99.60;;;;;;5020815;28;20034;-72
2022/06/04 11:14:51;;;;;;;12.00;3.65;;;30.20;98.60;;;;;;5041661;28;20401;-73
2022/06/04 11:17:29;;;;;;;12.15;3.00;;;30.20;98.30;;;;;;5053678;28;20053;-73
2022/06/04 11:20:04;;;;;;;11.15;3.40;;;30.50;97.10;;;;;;5023686;28;20037;-73
2022/06/04 11:22:36;;;;;;;13.68;3.38;;;30.40;96.20;;;;;;5020103;28;20405;-73
2022/06/04 11:25:19;;;;;;;10.82;3.40;;;30.70;96.10;;;;;;5022288;28;20067;-73
2022/06/04 11:27:55;;;;;;;11.85;3.10;;;31.00;95.60;;;;;;5051091;28;20404;-73
2022/06/04 11:30:50;;;;;;;11.35;2.80;;;31.60;95.10;;;;;;5008635;28;20498;-73
2022/06/04 11:34:00;;;;;;;13.68;3.60;;;32.00;94.40;;;;;;5041601;28;20637;-73
2022/06/04 11:36:43;;;;;;;8.43;2.90;;;32.30;94.00;;;;;;4949429;28;20515;-74
2022/06/04 11:39:20;;;;;;;5.72;2.63;;;32.70;92.30;;;;;;5017883;28;20046;-75
2022/06/04 11:42:12;;;;;;;9.30;2.65;;;32.90;91.70;;;;;;5021607;28;20103;-73
2022/06/04 11:45:02;;;;;;;8.18;2.60;;;33.20;91.30;;;;;;5018131;28;20071;-73
2022/06/04 11:48:03;;;;;;;10.80;3.43;;;33.80;90.90;;;;;;5047928;28;20049;-73
2022/06/04 11:50:48;;;;;;;15.27;4.97;;;34.00;91.80;;;;;;5020918;28;20033;-72
2022/06/04 11:53:23;;;;;;;9.40;5.05;;;34.20;92.50;;;;;;5037851;28;20084;-73
2022/06/04 11:56:00;;;;;;;8.43;4.50;;;34.20;92.40;;;;;;5022762;28;20036;-72
2022/06/04 11:58:40;;;;;;;13.55;5.45;;;34.10;92.20;;;;;;5032273;28;20048;-72
2022/06/04 12:01:14;;;;;;;13.10;6.75;;;34.20;92.70;;;;;;5034364;28;20148;-74
2022/06/04 12:03:56;;;;;;;14.73;6.68;;;33.80;93.40;;;;;;5035717;28;20034;-73
2022/06/04 12:06:24;;;;;;;13.85;6.57;;;33.60;94.20;;;;;;5022897;28;20060;-74
2022/06/04 12:09:14;;;;;;;7.60;4.85;;;33.50;94.10;;;;;;5051284;28;20038;-74
2022/06/04 12:12:01;;;;;;;11.90;4.95;;;33.80;93.80;;;;;;5021966;28;20041;-72
2022/06/04 12:14:49;;;;;;;10.15;4.68;;;34.20;93.20;;;;;;5021400;28;20440;-73
2022/06/04 12:17:21;;;;;;;13.05;3.97;;;34.00;92.70;;;;;;5017824;28;20041;-73
2022/06/04 12:25:46;;;;;;;10.82;3.35;;;34.30;91.90;;;;;;5021261;28;20051;-73
2022/06/04 12:28:41;;;;;;;8.80;3.50;;;34.60;91.50;;;;;;5019332;28;20041;-72
2022/06/04 12:31:07;;;;;;;7.18;2.95;;;34.80;91.00;;;;;;5017863;28;20045;-73
2022/06/04 12:33:49;;;;;;;9.80;3.10;;;34.90;90.20;;;;;;5035032;28;20439;-73
2022/06/04 12:36:25;;;;;;;9.93;3.60;;;34.80;91.20;;;;;;5047594;28;20041;-73
2022/06/04 12:39:00;;;;;;;11.48;3.65;;;34.70;91.20;;;;;;5037118;28;20057;-72
2022/06/04 12:41:40;;;;;;;12.25;3.28;;;34.50;91.50;;;;;;5029860;28;20131;-73
2022/06/04 12:44:21;;;;;;;8.98;3.60;;;34.10;91.40;;;;;;5011891;28;20557;-74
2022/06/04 12:46:49;;;;;;;11.90;3.10;;;33.80;91.60;;;;;;5020929;28;20372;-73
2022/06/04 12:49:18;;;;;;;10.95;3.92;;;33.90;91.00;;;;;;5032496;28;20508;-74
2022/06/04 12:51:46;;;;;;;10.50;3.30;;;34.00;91.60;;;;;;5037991;28;20308;-73
2022/06/04 12:54:31;;;;;;;9.25;3.30;;;33.20;91.30;;;;;;5019723;28;20046;-72
2022/06/04 12:57:05;;;;;;;14.02;3.88;;;32.60;92.60;;;;;;5022097;28;20658;-73
2022/06/04 12:59:43;;;;;;;7.40;3.75;;;31.90;94.30;;;;;;5032519;28;20140;-72
2022/06/04 13:02:28;;;;;;;12.65;3.60;;;31.00;96.20;;;;;;5051344;28;20385;-72
2022/06/04 13:05:21;;;;;;;9.85;4.07;;;30.50;97.30;;;;;;5019699;28;20041;-71
2022/06/04 13:07:57;;;;;;;8.25;4.03;;;30.30;98.40;;;;;;5021084;28;20413;-72
2022/06/04 13:10:37;;;;;;;7.95;3.85;;;30.60;98.60;;;;;;5027094;28;20120;-73
2022/06/04 13:13:21;;;;;;;10.20;4.03;;;31.00;97.70;;;;;;5036681;28;20135;-73
2022/06/04 13:15:56;;;;;;;9.38;4.47;;;30.80;98.10;;;;;;5019989;28;20057;-74
2022/06/04 13:18:35;;;;;;;10.63;4.10;;;30.20;99.10;;;;;;5048893;28;20440;-74
2022/06/04 13:21:04;;;;;;;13.57;6.45;;;30.30;98.70;;;;;;5020423;28;20044;-73
2022/06/04 13:23:42;;;;;;;11.20;4.80;;;30.00;99.40;;;;;;5022391;28;20505;-72